sensor_id;sensor_type;location;lat;lon;timestamp;P1;durP1;ratioP1;P2;durP2;ratioP2
51883;SDS011;37915;53.254;6.598;2023-04-07T00:00:06;20.92;;;12.60;;
51883;SDS011;37915;53.254;6.598;2023-04-07T00:02:32;21.88;;;13.90;;
51883;SDS011;37915;53.254;6.598;2023-04-07T00:04:58;20.83;;;15.20;;
51883;SDS011;37915;53.254;6.598;2023-04-07T00:07:23;20.73;;;14.93;;
51883;SDS011;37915;53.254;6.598;2023-04-07T00:09:49;20.80;;;13.32;;
51883;SDS011;37915;53.254;6.598;2023-04-07T00:12:15;20.35;;;14.45;;
51883;SDS011;37915;53.254;6.598;2023-04-07T00:14:41;23.35;;;14.02;;
51883;SDS011;37915;53.254;6.598;2023-04-07T00:17:07;24.10;;;15.23;;
51883;SDS011;37915;53.254;6.598;2023-04-07T00:19:32;24.40;;;15.20;;
51883;SDS011;37915;53.254;6.598;2023-04-07T00:21:58;22.52;;;14.68;;
51883;SDS011;37915;53.254;6.598;2023-04-07T00:24:23;19.05;;;14.48;;
51883;SDS011;37915;53.254;6.598;2023-04-07T00:26:49;20.65;;;14.48;;
51883;SDS011;37915;53.254;6.598;2023-04-07T00:29:15;21.00;;;14.18;;
51883;SDS011;37915;53.254;6.598;2023-04-07T00:31:40;20.38;;;13.63;;
51883;SDS011;37915;53.254;6.598;2023-04-07T00:34:06;19.17;;;13.50;;
51883;SDS011;37915;53.254;6.598;2023-04-07T00:36:32;20.50;;;14.63;;
51883;SDS011;37915;53.254;6.598;2023-04-07T00:38:57;20.77;;;14.07;;
51883;SDS011;37915;53.254;6.598;2023-04-07T00:41:23;21.23;;;15.32;;
51883;SDS011;37915;53.254;6.598;2023-04-07T00:43:49;20.20;;;14.82;;
51883;SDS011;37915;53.254;6.598;2023-04-07T00:46:16;22.60;;;14.23;;
51883;SDS011;37915;53.254;6.598;2023-04-07T00:48:42;20.05;;;14.35;;
51883;SDS011;37915;53.254;6.598;2023-04-07T00:51:09;21.83;;;14.63;;
51883;SDS011;37915;53.254;6.598;2023-04-07T00:53:34;19.33;;;13.63;;
51883;SDS011;37915;53.254;6.598;2023-04-07T00:56:00;22.55;;;14.98;;
51883;SDS011;37915;53.254;6.598;2023-04-07T00:58:26;23.33;;;15.77;;
51883;SDS011;37915;53.254;6.598;2023-04-07T01:01:03;22.85;;;16.17;;
51883;SDS011;37915;53.254;6.598;2023-04-07T01:03:33;23.83;;;15.07;;
51883;SDS011;37915;53.254;6.598;2023-04-07T01:06:10;21.48;;;13.88;;
51883;SDS011;37915;53.254;6.598;2023-04-07T01:08:47;19.23;;;13.55;;
51883;SDS011;37915;53.254;6.598;2023-04-07T01:13:49;26.63;;;14.80;;
51883;SDS011;37915;53.254;6.598;2023-04-07T01:16:16;22.77;;;15.13;;
51883;SDS011;37915;53.254;6.598;2023-04-07T01:18:49;22.27;;;15.15;;
51883;SDS011;37915;53.254;6.598;2023-04-07T01:21:18;22.85;;;14.48;;
51883;SDS011;37915;53.254;6.598;2023-04-07T01:26:31;22.05;;;14.75;;
51883;SDS011;37915;53.254;6.598;2023-04-07T01:31:57;22.00;;;15.07;;
51883;SDS011;37915;53.254;6.598;2023-04-07T01:34:25;21.88;;;14.88;;
51883;SDS011;37915;53.254;6.598;2023-04-07T01:36:53;24.13;;;15.55;;
51883;SDS011;37915;53.254;6.598;2023-04-07T01:39:20;28.85;;;16.83;;
51883;SDS011;37915;53.254;6.598;2023-04-07T01:41:46;23.85;;;17.00;;
51883;SDS011;37915;53.254;6.598;2023-04-07T01:44:13;25.13;;;16.38;;
51883;SDS011;37915;53.254;6.598;2023-04-07T01:46:39;25.35;;;16.67;;
51883;SDS011;37915;53.254;6.598;2023-04-07T01:49:05;24.70;;;16.75;;
51883;SDS011;37915;53.254;6.598;2023-04-07T01:51:32;26.70;;;16.15;;
51883;SDS011;37915;53.254;6.598;2023-04-07T01:53:58;21.48;;;15.20;;
51883;SDS011;37915;53.254;6.598;2023-04-07T01:56:26;25.63;;;16.67;;
51883;SDS011;37915;53.254;6.598;2023-04-07T01:58:51;25.27;;;16.13;;
51883;SDS011;37915;53.254;6.598;2023-04-07T02:01:17;27.45;;;18.05;;
51883;SDS011;37915;53.254;6.598;2023-04-07T02:03:45;24.88;;;16.52;;
51883;SDS011;37915;53.254;6.598;2023-04-07T02:06:18;22.88;;;15.13;;
51883;SDS011;37915;53.254;6.598;2023-04-07T02:08:47;26.08;;;17.33;;
51883;SDS011;37915;53.254;6.598;2023-04-07T02:11:17;23.98;;;16.02;;
51883;SDS011;37915;53.254;6.598;2023-04-07T02:13:45;25.98;;;16.92;;
51883;SDS011;37915;53.254;6.598;2023-04-07T02:16:12;24.88;;;17.35;;
51883;SDS011;37915;53.254;6.598;2023-04-07T02:18:38;27.17;;;17.40;;
51883;SDS011;37915;53.254;6.598;2023-04-07T02:21:06;26.38;;;17.73;;
51883;SDS011;37915;53.254;6.598;2023-04-07T02:23:35;28.75;;;17.30;;
51883;SDS011;37915;53.254;6.598;2023-04-07T02:26:01;23.52;;;15.85;;
51883;SDS011;37915;53.254;6.598;2023-04-07T02:28:27;27.70;;;16.65;;
51883;SDS011;37915;53.254;6.598;2023-04-07T02:30:53;24.08;;;16.52;;
51883;SDS011;37915;53.254;6.598;2023-04-07T02:33:19;29.25;;;18.30;;
51883;SDS011;37915;53.254;6.598;2023-04-07T02:35:44;28.52;;;18.13;;
51883;SDS011;37915;53.254;6.598;2023-04-07T02:38:10;25.27;;;16.95;;
51883;SDS011;37915;53.254;6.598;2023-04-07T02:40:36;26.38;;;17.55;;
51883;SDS011;37915;53.254;6.598;2023-04-07T02:43:01;28.05;;;17.58;;
51883;SDS011;37915;53.254;6.598;2023-04-07T02:45:29;24.77;;;15.88;;
51883;SDS011;37915;53.254;6.598;2023-04-07T02:47:55;28.23;;;17.92;;
51883;SDS011;37915;53.254;6.598;2023-04-07T02:50:20;27.58;;;17.42;;
51883;SDS011;37915;53.254;6.598;2023-04-07T02:52:46;28.35;;;17.80;;
51883;SDS011;37915;53.254;6.598;2023-04-07T02:55:12;27.80;;;18.25;;
51883;SDS011;37915;53.254;6.598;2023-04-07T02:57:37;27.10;;;17.52;;
51883;SDS011;37915;53.254;6.598;2023-04-07T03:00:03;31.25;;;19.27;;
51883;SDS011;37915;53.254;6.598;2023-04-07T03:02:29;29.77;;;18.77;;
51883;SDS011;37915;53.254;6.598;2023-04-07T03:04:55;31.80;;;18.58;;
51883;SDS011;37915;53.254;6.598;2023-04-07T03:07:20;22.73;;;15.50;;
51883;SDS011;37915;53.254;6.598;2023-04-07T03:09:46;26.67;;;17.33;;
51883;SDS011;37915;53.254;6.598;2023-04-07T03:12:12;26.77;;;18.30;;
51883;SDS011;37915;53.254;6.598;2023-04-07T03:14:37;27.15;;;17.58;;
51883;SDS011;37915;53.254;6.598;2023-04-07T03:17:03;29.13;;;18.73;;
51883;SDS011;37915;53.254;6.598;2023-04-07T03:19:29;22.58;;;16.17;;
51883;SDS011;37915;53.254;6.598;2023-04-07T03:21:55;23.65;;;15.77;;
51883;SDS011;37915;53.254;6.598;2023-04-07T03:24:20;25.65;;;16.35;;
51883;SDS011;37915;53.254;6.598;2023-04-07T03:26:46;26.45;;;16.67;;
51883;SDS011;37915;53.254;6.598;2023-04-07T03:29:12;28.48;;;16.77;;
51883;SDS011;37915;53.254;6.598;2023-04-07T03:31:37;23.67;;;15.88;;
51883;SDS011;37915;53.254;6.598;2023-04-07T03:34:03;27.30;;;16.20;;
51883;SDS011;37915;53.254;6.598;2023-04-07T03:36:29;23.98;;;16.13;;
51883;SDS011;37915;53.254;6.598;2023-04-07T03:38:58;22.50;;;15.48;;
51883;SDS011;37915;53.254;6.598;2023-04-07T03:41:24;27.55;;;16.17;;
51883;SDS011;37915;53.254;6.598;2023-04-07T03:43:49;20.90;;;14.80;;
51883;SDS011;37915;53.254;6.598;2023-04-07T03:46:15;25.95;;;16.35;;
51883;SDS011;37915;53.254;6.598;2023-04-07T03:48:42;19.58;;;12.90;;
51883;SDS011;37915;53.254;6.598;2023-04-07T03:51:08;23.45;;;15.25;;
51883;SDS011;37915;53.254;6.598;2023-04-07T03:53:34;23.05;;;15.40;;
51883;SDS011;37915;53.254;6.598;2023-04-07T03:55:59;24.73;;;15.25;;
51883;SDS011;37915;53.254;6.598;2023-04-07T03:58:25;21.40;;;15.38;;
51883;SDS011;37915;53.254;6.598;2023-04-07T04:00:51;26.95;;;15.77;;
51883;SDS011;37915;53.254;6.598;2023-04-07T04:03:17;23.52;;;16.05;;
51883;SDS011;37915;53.254;6.598;2023-04-07T04:05:42;24.33;;;15.70;;
51883;SDS011;37915;53.254;6.598;2023-04-07T04:08:08;24.17;;;15.27;;
51883;SDS011;37915;53.254;6.598;2023-04-07T04:10:34;23.52;;;16.17;;
51883;SDS011;37915;53.254;6.598;2023-04-07T04:12:59;22.63;;;16.65;;
51883;SDS011;37915;53.254;6.598;2023-04-07T04:15:27;25.80;;;16.33;;
51883;SDS011;37915;53.254;6.598;2023-04-07T04:17:53;21.88;;;15.60;;
51883;SDS011;37915;53.254;6.598;2023-04-07T04:20:19;26.70;;;16.42;;
51883;SDS011;37915;53.254;6.598;2023-04-07T04:22:46;21.98;;;15.60;;
51883;SDS011;37915;53.254;6.598;2023-04-07T04:25:11;25.52;;;16.15;;
51883;SDS011;37915;53.254;6.598;2023-04-07T04:27:37;23.65;;;14.90;;
51883;SDS011;37915;53.254;6.598;2023-04-07T04:30:03;22.55;;;14.60;;
51883;SDS011;37915;53.254;6.598;2023-04-07T04:32:29;24.20;;;15.55;;
51883;SDS011;37915;53.254;6.598;2023-04-07T04:34:55;26.25;;;16.02;;
51883;SDS011;37915;53.254;6.598;2023-04-07T04:37:20;21.48;;;14.30;;
51883;SDS011;37915;53.254;6.598;2023-04-07T04:39:46;21.83;;;13.93;;
51883;SDS011;37915;53.254;6.598;2023-04-07T04:42:12;21.38;;;14.57;;
51883;SDS011;37915;53.254;6.598;2023-04-07T04:44:37;20.90;;;14.18;;
51883;SDS011;37915;53.254;6.598;2023-04-07T04:47:03;19.33;;;12.85;;
51883;SDS011;37915;53.254;6.598;2023-04-07T04:49:29;21.92;;;14.32;;
51883;SDS011;37915;53.254;6.598;2023-04-07T04:51:55;23.10;;;14.35;;
51883;SDS011;37915;53.254;6.598;2023-04-07T04:54:21;22.23;;;14.43;;
51883;SDS011;37915;53.254;6.598;2023-04-07T04:56:46;21.98;;;13.43;;
51883;SDS011;37915;53.254;6.598;2023-04-07T04:59:12;22.75;;;14.90;;
51883;SDS011;37915;53.254;6.598;2023-04-07T05:01:38;21.65;;;13.95;;
51883;SDS011;37915;53.254;6.598;2023-04-07T05:04:03;24.17;;;15.15;;
51883;SDS011;37915;53.254;6.598;2023-04-07T05:06:29;20.83;;;13.57;;
51883;SDS011;37915;53.254;6.598;2023-04-07T05:08:55;19.52;;;13.88;;
51883;SDS011;37915;53.254;6.598;2023-04-07T05:11:21;24.00;;;15.80;;
51883;SDS011;37915;53.254;6.598;2023-04-07T05:13:46;20.42;;;13.75;;
51883;SDS011;37915;53.254;6.598;2023-04-07T05:16:12;21.08;;;15.10;;
51883;SDS011;37915;53.254;6.598;2023-04-07T05:18:38;21.77;;;14.48;;
51883;SDS011;37915;53.254;6.598;2023-04-07T05:21:03;20.58;;;13.07;;
51883;SDS011;37915;53.254;6.598;2023-04-07T05:23:29;23.58;;;15.48;;
51883;SDS011;37915;53.254;6.598;2023-04-07T05:25:55;22.42;;;14.88;;
51883;SDS011;37915;53.254;6.598;2023-04-07T05:28:21;22.90;;;15.20;;
51883;SDS011;37915;53.254;6.598;2023-04-07T05:30:46;21.98;;;14.85;;
51883;SDS011;37915;53.254;6.598;2023-04-07T05:33:12;22.85;;;14.63;;
51883;SDS011;37915;53.254;6.598;2023-04-07T05:35:38;23.75;;;15.40;;
51883;SDS011;37915;53.254;6.598;2023-04-07T05:38:03;19.50;;;14.18;;
51883;SDS011;37915;53.254;6.598;2023-04-07T05:40:29;22.35;;;14.77;;
51883;SDS011;37915;53.254;6.598;2023-04-07T05:42:55;18.73;;;13.15;;
51883;SDS011;37915;53.254;6.598;2023-04-07T05:45:20;26.25;;;15.40;;
51883;SDS011;37915;53.254;6.598;2023-04-07T05:47:46;24.65;;;15.45;;
51883;SDS011;37915;53.254;6.598;2023-04-07T05:50:14;22.88;;;14.77;;
51883;SDS011;37915;53.254;6.598;2023-04-07T05:52:41;20.95;;;14.65;;
51883;SDS011;37915;53.254;6.598;2023-04-07T05:55:06;18.83;;;13.13;;
51883;SDS011;37915;53.254;6.598;2023-04-07T05:57:32;23.13;;;15.23;;
51883;SDS011;37915;53.254;6.598;2023-04-07T05:59:58;22.77;;;15.02;;
51883;SDS011;37915;53.254;6.598;2023-04-07T06:02:24;20.92;;;14.05;;
51883;SDS011;37915;53.254;6.598;2023-04-07T06:04:50;23.33;;;16.08;;
51883;SDS011;37915;53.254;6.598;2023-04-07T06:07:16;21.90;;;14.25;;
51883;SDS011;37915;53.254;6.598;2023-04-07T06:09:41;21.98;;;14.80;;
51883;SDS011;37915;53.254;6.598;2023-04-07T06:12:07;22.95;;;14.90;;
51883;SDS011;37915;53.254;6.598;2023-04-07T06:14:34;20.90;;;13.23;;
51883;SDS011;37915;53.254;6.598;2023-04-07T06:17:00;19.08;;;12.88;;
51883;SDS011;37915;53.254;6.598;2023-04-07T06:19:26;24.02;;;15.68;;
51883;SDS011;37915;53.254;6.598;2023-04-07T06:21:52;20.98;;;13.88;;
51883;SDS011;37915;53.254;6.598;2023-04-07T06:24:17;20.55;;;14.45;;
51883;SDS011;37915;53.254;6.598;2023-04-07T06:26:46;21.13;;;14.85;;
51883;SDS011;37915;53.254;6.598;2023-04-07T06:29:12;21.30;;;14.52;;
51883;SDS011;37915;53.254;6.598;2023-04-07T06:31:38;22.00;;;14.18;;
51883;SDS011;37915;53.254;6.598;2023-04-07T06:34:03;20.55;;;13.93;;
51883;SDS011;37915;53.254;6.598;2023-04-07T06:36:29;21.55;;;14.68;;
51883;SDS011;37915;53.254;6.598;2023-04-07T06:38:55;26.17;;;15.60;;
51883;SDS011;37915;53.254;6.598;2023-04-07T06:41:21;22.20;;;13.70;;
51883;SDS011;37915;53.254;6.598;2023-04-07T06:43:47;21.27;;;14.60;;
51883;SDS011;37915;53.254;6.598;2023-04-07T06:46:15;21.65;;;14.50;;
51883;SDS011;37915;53.254;6.598;2023-04-07T06:48:41;22.38;;;14.10;;
51883;SDS011;37915;53.254;6.598;2023-04-07T06:51:06;22.35;;;14.35;;
51883;SDS011;37915;53.254;6.598;2023-04-07T06:53:32;22.05;;;14.05;;
51883;SDS011;37915;53.254;6.598;2023-04-07T06:56:02;19.50;;;13.45;;
51883;SDS011;37915;53.254;6.598;2023-04-07T07:00:57;19.38;;;12.98;;
51883;SDS011;37915;53.254;6.598;2023-04-07T07:03:22;22.73;;;12.82;;
51883;SDS011;37915;53.254;6.598;2023-04-07T07:05:51;19.75;;;13.02;;
51883;SDS011;37915;53.254;6.598;2023-04-07T07:08:23;21.80;;;14.05;;
51883;SDS011;37915;53.254;6.598;2023-04-07T07:10:49;21.02;;;13.70;;
51883;SDS011;37915;53.254;6.598;2023-04-07T07:13:15;22.42;;;14.25;;
51883;SDS011;37915;53.254;6.598;2023-04-07T07:15:42;21.35;;;14.63;;
51883;SDS011;37915;53.254;6.598;2023-04-07T07:18:07;21.15;;;13.98;;
51883;SDS011;37915;53.254;6.598;2023-04-07T07:20:33;22.35;;;13.95;;
51883;SDS011;37915;53.254;6.598;2023-04-07T07:22:58;18.50;;;12.82;;
51883;SDS011;37915;53.254;6.598;2023-04-07T07:25:24;20.80;;;13.30;;
51883;SDS011;37915;53.254;6.598;2023-04-07T07:27:53;20.05;;;12.20;;
51883;SDS011;37915;53.254;6.598;2023-04-07T07:30:19;19.10;;;12.80;;
51883;SDS011;37915;53.254;6.598;2023-04-07T07:32:46;20.23;;;13.65;;
51883;SDS011;37915;53.254;6.598;2023-04-07T07:35:12;20.88;;;14.02;;
51883;SDS011;37915;53.254;6.598;2023-04-07T07:37:38;17.25;;;11.80;;
51883;SDS011;37915;53.254;6.598;2023-04-07T07:40:04;19.75;;;12.68;;
51883;SDS011;37915;53.254;6.598;2023-04-07T07:42:30;17.48;;;12.23;;
51883;SDS011;37915;53.254;6.598;2023-04-07T07:44:56;18.42;;;12.85;;
51883;SDS011;37915;53.254;6.598;2023-04-07T07:47:22;21.88;;;13.68;;
51883;SDS011;37915;53.254;6.598;2023-04-07T07:49:48;19.88;;;13.23;;
51883;SDS011;37915;53.254;6.598;2023-04-07T07:52:14;23.58;;;12.77;;
51883;SDS011;37915;53.254;6.598;2023-04-07T07:54:40;18.48;;;12.75;;
51883;SDS011;37915;53.254;6.598;2023-04-07T07:57:05;19.17;;;13.32;;
51883;SDS011;37915;53.254;6.598;2023-04-07T07:59:31;21.05;;;13.35;;
51883;SDS011;37915;53.254;6.598;2023-04-07T08:01:57;22.08;;;15.85;;
51883;SDS011;37915;53.254;6.598;2023-04-07T08:04:23;20.52;;;14.95;;
51883;SDS011;37915;53.254;6.598;2023-04-07T08:06:49;22.83;;;16.00;;
51883;SDS011;37915;53.254;6.598;2023-04-07T08:09:16;22.63;;;14.93;;
51883;SDS011;37915;53.254;6.598;2023-04-07T08:11:42;25.15;;;16.55;;
51883;SDS011;37915;53.254;6.598;2023-04-07T08:14:08;24.15;;;16.25;;
51883;SDS011;37915;53.254;6.598;2023-04-07T08:16:34;22.17;;;15.35;;
51883;SDS011;37915;53.254;6.598;2023-04-07T08:19:00;23.83;;;16.52;;
51883;SDS011;37915;53.254;6.598;2023-04-07T08:21:25;25.20;;;18.00;;
51883;SDS011;37915;53.254;6.598;2023-04-07T08:23:54;26.33;;;18.17;;
51883;SDS011;37915;53.254;6.598;2023-04-07T08:26:20;28.83;;;19.02;;
51883;SDS011;37915;53.254;6.598;2023-04-07T08:28:47;27.42;;;18.65;;
51883;SDS011;37915;53.254;6.598;2023-04-07T08:31:15;30.27;;;19.80;;
51883;SDS011;37915;53.254;6.598;2023-04-07T08:33:41;27.88;;;19.23;;
51883;SDS011;37915;53.254;6.598;2023-04-07T08:36:07;29.60;;;19.80;;
51883;SDS011;37915;53.254;6.598;2023-04-07T08:38:32;29.88;;;20.20;;
51883;SDS011;37915;53.254;6.598;2023-04-07T08:41:09;27.80;;;20.02;;
51883;SDS011;37915;53.254;6.598;2023-04-07T08:43:37;30.00;;;18.20;;
51883;SDS011;37915;53.254;6.598;2023-04-07T08:46:04;26.83;;;19.20;;
51883;SDS011;37915;53.254;6.598;2023-04-07T08:48:30;29.05;;;19.52;;
51883;SDS011;37915;53.254;6.598;2023-04-07T08:51:06;25.20;;;19.50;;
51883;SDS011;37915;53.254;6.598;2023-04-07T08:53:40;25.58;;;18.10;;
51883;SDS011;37915;53.254;6.598;2023-04-07T08:56:14;27.13;;;18.55;;
51883;SDS011;37915;53.254;6.598;2023-04-07T08:58:41;27.90;;;19.30;;
51883;SDS011;37915;53.254;6.598;2023-04-07T09:01:08;28.80;;;19.27;;
51883;SDS011;37915;53.254;6.598;2023-04-07T09:03:34;24.67;;;17.77;;
51883;SDS011;37915;53.254;6.598;2023-04-07T09:06:00;21.50;;;15.77;;
51883;SDS011;37915;53.254;6.598;2023-04-07T09:08:26;22.65;;;15.68;;
51883;SDS011;37915;53.254;6.598;2023-04-07T09:10:53;21.75;;;15.63;;
51883;SDS011;37915;53.254;6.598;2023-04-07T09:13:20;21.98;;;16.45;;
51883;SDS011;37915;53.254;6.598;2023-04-07T09:15:46;19.52;;;13.18;;
51883;SDS011;37915;53.254;6.598;2023-04-07T09:18:12;23.40;;;15.85;;
51883;SDS011;37915;53.254;6.598;2023-04-07T09:20:58;24.60;;;16.27;;
51883;SDS011;37915;53.254;6.598;2023-04-07T09:23:32;19.42;;;15.27;;
51883;SDS011;37915;53.254;6.598;2023-04-07T09:26:00;22.00;;;14.85;;
51883;SDS011;37915;53.254;6.598;2023-04-07T09:28:46;19.50;;;13.98;;
51883;SDS011;37915;53.254;6.598;2023-04-07T09:31:14;18.35;;;13.02;;
51883;SDS011;37915;53.254;6.598;2023-04-07T09:33:41;17.63;;;13.48;;
51883;SDS011;37915;53.254;6.598;2023-04-07T09:36:07;16.92;;;12.68;;
51883;SDS011;37915;53.254;6.598;2023-04-07T09:38:38;17.55;;;11.68;;
51883;SDS011;37915;53.254;6.598;2023-04-07T09:41:12;16.80;;;12.40;;
51883;SDS011;37915;53.254;6.598;2023-04-07T09:43:39;15.90;;;11.27;;
51883;SDS011;37915;53.254;6.598;2023-04-07T09:46:09;16.20;;;11.68;;
51883;SDS011;37915;53.254;6.598;2023-04-07T09:48:36;16.17;;;11.48;;
51883;SDS011;37915;53.254;6.598;2023-04-07T09:51:06;17.02;;;12.07;;
51883;SDS011;37915;53.254;6.598;2023-04-07T09:53:46;14.82;;;10.75;;
51883;SDS011;37915;53.254;6.598;2023-04-07T09:56:14;14.15;;;10.02;;
51883;SDS011;37915;53.254;6.598;2023-04-07T09:58:42;14.05;;;10.73;;
51883;SDS011;37915;53.254;6.598;2023-04-07T10:01:10;14.38;;;11.13;;
51883;SDS011;37915;53.254;6.598;2023-04-07T10:03:36;15.77;;;10.98;;
51883;SDS011;37915;53.254;6.598;2023-04-07T10:06:03;13.30;;;9.60;;
51883;SDS011;37915;53.254;6.598;2023-04-07T10:08:30;12.70;;;8.85;;
51883;SDS011;37915;53.254;6.598;2023-04-07T10:10:57;13.90;;;9.75;;
51883;SDS011;37915;53.254;6.598;2023-04-07T10:13:25;13.18;;;9.65;;
51883;SDS011;37915;53.254;6.598;2023-04-07T10:15:52;13.82;;;9.48;;
51883;SDS011;37915;53.254;6.598;2023-04-07T10:18:18;13.65;;;9.10;;
51883;SDS011;37915;53.254;6.598;2023-04-07T10:20:47;14.50;;;10.55;;
51883;SDS011;37915;53.254;6.598;2023-04-07T10:23:16;13.32;;;9.43;;
51883;SDS011;37915;53.254;6.598;2023-04-07T10:25:47;12.38;;;10.00;;
51883;SDS011;37915;53.254;6.598;2023-04-07T10:28:16;14.48;;;10.52;;
51883;SDS011;37915;53.254;6.598;2023-04-07T10:30:46;14.13;;;10.52;;
51883;SDS011;37915;53.254;6.598;2023-04-07T10:33:12;14.38;;;10.48;;
51883;SDS011;37915;53.254;6.598;2023-04-07T10:38:32;14.20;;;10.23;;
51883;SDS011;37915;53.254;6.598;2023-04-07T10:40:57;14.15;;;10.98;;
51883;SDS011;37915;53.254;6.598;2023-04-07T10:43:36;13.63;;;10.15;;
51883;SDS011;37915;53.254;6.598;2023-04-07T10:46:08;18.30;;;10.40;;
51883;SDS011;37915;53.254;6.598;2023-04-07T10:48:34;12.68;;;9.40;;
51883;SDS011;37915;53.254;6.598;2023-04-07T10:53:29;15.65;;;10.52;;
51883;SDS011;37915;53.254;6.598;2023-04-07T10:55:56;13.68;;;9.68;;
51883;SDS011;37915;53.254;6.598;2023-04-07T11:03:37;14.13;;;9.35;;
51883;SDS011;37915;53.254;6.598;2023-04-07T11:08:34;16.98;;;11.13;;
51883;SDS011;37915;53.254;6.598;2023-04-07T11:11:01;12.02;;;9.23;;
51883;SDS011;37915;53.254;6.598;2023-04-07T11:13:49;11.07;;;8.77;;
51883;SDS011;37915;53.254;6.598;2023-04-07T11:16:16;13.02;;;8.85;;
51883;SDS011;37915;53.254;6.598;2023-04-07T11:18:43;14.80;;;9.52;;
51883;SDS011;37915;53.254;6.598;2023-04-07T11:21:10;13.60;;;10.00;;
51883;SDS011;37915;53.254;6.598;2023-04-07T11:23:39;12.88;;;8.88;;
51883;SDS011;37915;53.254;6.598;2023-04-07T11:26:07;9.55;;;6.40;;
51883;SDS011;37915;53.254;6.598;2023-04-07T11:28:34;9.80;;;7.63;;
51883;SDS011;37915;53.254;6.598;2023-04-07T11:31:10;11.48;;;7.95;;
51883;SDS011;37915;53.254;6.598;2023-04-07T11:33:36;11.25;;;7.95;;
51883;SDS011;37915;53.254;6.598;2023-04-07T11:36:05;10.18;;;7.60;;
51883;SDS011;37915;53.254;6.598;2023-04-07T11:38:35;10.20;;;7.50;;
51883;SDS011;37915;53.254;6.598;2023-04-07T11:41:09;12.38;;;7.97;;
51883;SDS011;37915;53.254;6.598;2023-04-07T11:43:36;11.15;;;8.18;;
51883;SDS011;37915;53.254;6.598;2023-04-07T11:46:04;11.60;;;7.90;;
51883;SDS011;37915;53.254;6.598;2023-04-07T11:48:32;10.27;;;8.07;;
51883;SDS011;37915;53.254;6.598;2023-04-07T11:50:59;10.40;;;7.97;;
51883;SDS011;37915;53.254;6.598;2023-04-07T11:53:29;10.57;;;7.65;;
51883;SDS011;37915;53.254;6.598;2023-04-07T11:56:06;9.80;;;6.95;;
51883;SDS011;37915;53.254;6.598;2023-04-07T11:58:34;10.52;;;8.07;;
51883;SDS011;37915;53.254;6.598;2023-04-07T12:01:02;11.38;;;7.65;;
51883;SDS011;37915;53.254;6.598;2023-04-07T12:03:31;10.93;;;8.02;;
51883;SDS011;37915;53.254;6.598;2023-04-07T12:05:58;10.10;;;7.40;;
51883;SDS011;37915;53.254;6.598;2023-04-07T12:08:38;9.35;;;7.32;;
51883;SDS011;37915;53.254;6.598;2023-04-07T12:11:07;10.75;;;7.70;;
51883;SDS011;37915;53.254;6.598;2023-04-07T12:13:34;9.93;;;7.68;;
51883;SDS011;37915;53.254;6.598;2023-04-07T12:16:01;11.93;;;7.35;;
51883;SDS011;37915;53.254;6.598;2023-04-07T12:18:27;8.77;;;6.75;;
51883;SDS011;37915;53.254;6.598;2023-04-07T12:20:54;10.30;;;7.82;;
51883;SDS011;37915;53.254;6.598;2023-04-07T12:23:21;10.27;;;7.47;;
51883;SDS011;37915;53.254;6.598;2023-04-07T12:25:47;10.75;;;7.55;;
51883;SDS011;37915;53.254;6.598;2023-04-07T12:28:13;13.38;;;7.85;;
51883;SDS011;37915;53.254;6.598;2023-04-07T12:30:39;9.77;;;7.78;;
51883;SDS011;37915;53.254;6.598;2023-04-07T12:33:04;9.25;;;7.10;;
51883;SDS011;37915;53.254;6.598;2023-04-07T12:35:30;10.27;;;7.68;;
51883;SDS011;37915;53.254;6.598;2023-04-07T12:37:56;10.35;;;8.48;;
51883;SDS011;37915;53.254;6.598;2023-04-07T12:40:22;10.63;;;8.20;;
51883;SDS011;37915;53.254;6.598;2023-04-07T12:42:48;9.48;;;7.20;;
51883;SDS011;37915;53.254;6.598;2023-04-07T12:45:14;11.98;;;8.18;;
51883;SDS011;37915;53.254;6.598;2023-04-07T12:47:40;10.05;;;7.03;;
51883;SDS011;37915;53.254;6.598;2023-04-07T12:50:06;10.10;;;8.10;;
51883;SDS011;37915;53.254;6.598;2023-04-07T12:52:32;9.43;;;7.70;;
51883;SDS011;37915;53.254;6.598;2023-04-07T12:54:58;12.15;;;7.45;;
51883;SDS011;37915;53.254;6.598;2023-04-07T12:57:23;10.13;;;7.18;;
51883;SDS011;37915;53.254;6.598;2023-04-07T12:59:49;10.27;;;8.07;;
51883;SDS011;37915;53.254;6.598;2023-04-07T13:02:16;9.63;;;7.68;;
51883;SDS011;37915;53.254;6.598;2023-04-07T13:04:43;10.90;;;7.78;;
51883;SDS011;37915;53.254;6.598;2023-04-07T13:07:11;9.65;;;7.93;;
51883;SDS011;37915;53.254;6.598;2023-04-07T13:09:37;9.30;;;7.00;;
51883;SDS011;37915;53.254;6.598;2023-04-07T13:12:03;11.48;;;8.23;;
51883;SDS011;37915;53.254;6.598;2023-04-07T13:14:29;12.10;;;7.47;;
51883;SDS011;37915;53.254;6.598;2023-04-07T13:16:55;9.95;;;7.47;;
51883;SDS011;37915;53.254;6.598;2023-04-07T13:19:21;9.70;;;8.13;;
51883;SDS011;37915;53.254;6.598;2023-04-07T13:21:46;10.27;;;7.95;;
51883;SDS011;37915;53.254;6.598;2023-04-07T13:24:12;11.10;;;8.23;;
51883;SDS011;37915;53.254;6.598;2023-04-07T13:26:38;10.55;;;7.80;;
51883;SDS011;37915;53.254;6.598;2023-04-07T13:29:03;8.00;;;6.32;;
51883;SDS011;37915;53.254;6.598;2023-04-07T13:31:29;8.45;;;6.90;;
51883;SDS011;37915;53.254;6.598;2023-04-07T13:33:55;9.60;;;7.53;;
51883;SDS011;37915;53.254;6.598;2023-04-07T13:36:21;8.57;;;7.40;;
51883;SDS011;37915;53.254;6.598;2023-04-07T13:38:47;9.05;;;7.55;;
51883;SDS011;37915;53.254;6.598;2023-04-07T13:41:12;10.98;;;7.28;;
51883;SDS011;37915;53.254;6.598;2023-04-07T13:43:38;9.20;;;6.80;;
51883;SDS011;37915;53.254;6.598;2023-04-07T13:46:03;9.18;;;7.28;;
51883;SDS011;37915;53.254;6.598;2023-04-07T13:48:29;9.60;;;6.72;;
51883;SDS011;37915;53.254;6.598;2023-04-07T13:50:55;9.85;;;7.70;;
51883;SDS011;37915;53.254;6.598;2023-04-07T13:53:21;9.48;;;7.72;;
51883;SDS011;37915;53.254;6.598;2023-04-07T13:55:47;11.35;;;7.93;;
51883;SDS011;37915;53.254;6.598;2023-04-07T13:58:13;10.45;;;7.35;;
51883;SDS011;37915;53.254;6.598;2023-04-07T14:00:38;9.63;;;8.35;;
51883;SDS011;37915;53.254;6.598;2023-04-07T14:03:05;10.68;;;7.60;;
51883;SDS011;37915;53.254;6.598;2023-04-07T14:05:31;9.35;;;7.30;;
51883;SDS011;37915;53.254;6.598;2023-04-07T14:07:56;9.30;;;7.50;;
51883;SDS011;37915;53.254;6.598;2023-04-07T14:10:22;10.02;;;8.07;;
51883;SDS011;37915;53.254;6.598;2023-04-07T14:12:48;8.68;;;7.25;;
51883;SDS011;37915;53.254;6.598;2023-04-07T14:15:13;10.77;;;7.55;;
51883;SDS011;37915;53.254;6.598;2023-04-07T14:17:39;10.88;;;7.60;;
51883;SDS011;37915;53.254;6.598;2023-04-07T14:20:05;10.32;;;8.15;;
51883;SDS011;37915;53.254;6.598;2023-04-07T14:22:31;11.00;;;8.40;;
51883;SDS011;37915;53.254;6.598;2023-04-07T14:24:57;9.30;;;8.05;;
51883;SDS011;37915;53.254;6.598;2023-04-07T14:27:22;9.35;;;6.82;;
51883;SDS011;37915;53.254;6.598;2023-04-07T14:29:48;12.95;;;8.48;;
51883;SDS011;37915;53.254;6.598;2023-04-07T14:32:14;10.57;;;7.40;;
51883;SDS011;37915;53.254;6.598;2023-04-07T14:34:40;9.50;;;8.10;;
51883;SDS011;37915;53.254;6.598;2023-04-07T14:37:06;10.00;;;7.95;;
51883;SDS011;37915;53.254;6.598;2023-04-07T14:39:32;10.35;;;7.93;;
51883;SDS011;37915;53.254;6.598;2023-04-07T14:41:58;12.98;;;7.80;;
51883;SDS011;37915;53.254;6.598;2023-04-07T14:44:24;10.18;;;8.00;;
51883;SDS011;37915;53.254;6.598;2023-04-07T14:46:52;9.90;;;8.07;;